Disclaimer

Please do not use the information listed here in-flight or in-navigation, as they are not provided to us by the airports but are provided by volunteers, so they might be outdated.

Search


Regions


Airport information page

No radio frequency information is available.

Airport informations:
Latitude: 10° 20' 20.61" S
Longitude: 040° 10' 54.41" E
Elevation: 371 feet - 113 meters
Operating hours: Remarks
Operating agency: Civil government, landing fees and diplomatic clearance may be required
Timezone: UTC+3
Fuel: Jet A1, without icing nhibitor.

100/130 MIL Spec, low lead, aviation gasoline (BLUE)

Runway information:
01/19 - 7410 x 98 feet< - >2259 x 30 meters
08/26 - 3815 x 98 feet< - >1163 x 30 meters

Recent METARs:
HTMT 131500Z 09010KT 9999 FEW022 28/20 Q1011 NOSIG
HTMT 131500Z 09010KT 9999 FEW022 28/20 Q1011 NOSIG
HTMT 131600Z 09011KT 9999 FEW021 25/22 Q1011

Airport on the map: